createdAt,value
2019-04-21T00:00:54.260Z,96.10
2019-04-21T00:03:25.833Z,96.20
2019-04-21T00:06:09.210Z,96.20
2019-04-21T00:08:46.926Z,96.20
2019-04-21T00:11:20.035Z,96.40
2019-04-21T00:13:38.168Z,96.60
2019-04-21T00:16:01.460Z,96.80
2019-04-21T00:18:50.637Z,97.10
2019-04-21T00:21:24.392Z,96.80
2019-04-21T00:24:00.375Z,96.80
2019-04-21T00:26:37.640Z,96.80
2019-04-21T00:29:16.439Z,96.80
2019-04-21T00:31:39.349Z,96.90
2019-04-21T00:33:53.734Z,97.20
2019-04-21T00:36:29.644Z,97.50
2019-04-21T00:39:28.790Z,97.60
2019-04-21T00:41:48.515Z,97.30
2019-04-21T00:44:08.686Z,97.70
2019-04-21T00:46:44.626Z,98.00
2019-04-21T00:49:17.005Z,97.70
2019-04-21T00:52:07.138Z,97.40
2019-04-21T00:54:34.708Z,97.90
2019-04-21T00:57:03.672Z,97.90
2019-04-21T00:59:34.967Z,97.90
2019-04-21T01:01:59.713Z,98.20
2019-04-21T01:04:37.101Z,98.40
2019-04-21T01:07:07.175Z,98.20
2019-04-21T01:09:31.679Z,98.40
2019-04-21T01:12:08.106Z,98.40
2019-04-21T01:14:43.535Z,98.40
2019-04-21T01:17:14.589Z,98.30
2019-04-21T01:19:38.796Z,98.80
2019-04-21T01:21:51.963Z,98.90
2019-04-21T01:24:28.899Z,99.10
2019-04-21T01:27:00.838Z,99.20
2019-04-21T01:29:45.919Z,99.30
2019-04-21T01:32:19.367Z,99.30
2019-04-21T01:34:47.018Z,99.20
2019-04-21T01:37:15.831Z,99.20
2019-04-21T01:39:53.515Z,99.40
2019-04-21T01:42:21.717Z,99.20
2019-04-21T01:44:59.956Z,99.60
2019-04-21T01:47:26.304Z,99.40
2019-04-21T01:49:52.566Z,99.50
2019-04-21T01:52:38.305Z,99.70
2019-04-21T01:55:10.790Z,99.40
2019-04-21T01:57:44.710Z,99.60
2019-04-21T02:00:13.581Z,99.60
2019-04-21T02:02:59.462Z,99.80
2019-04-21T02:05:34.512Z,99.80
2019-04-21T02:07:54.772Z,99.70
2019-04-21T02:10:34.572Z,99.80
2019-04-21T02:12:56.698Z,99.90
2019-04-21T02:15:35.997Z,99.90
2019-04-21T02:18:04.642Z,99.90
2019-04-21T02:20:25.715Z,99.80
2019-04-21T02:23:17.849Z,99.90
2019-04-21T02:25:38.594Z,99.80
2019-04-21T02:28:13.487Z,99.70
2019-04-21T02:30:56.570Z,99.80
2019-04-21T02:33:34.476Z,99.60
2019-04-21T02:36:00.542Z,99.60
2019-04-21T02:38:30.143Z,99.80
2019-04-21T02:45:55.946Z,99.90
2019-04-21T02:48:34.673Z,99.90
2019-04-21T02:50:50.756Z,99.90
2019-04-21T02:53:39.136Z,99.90
2019-04-21T02:56:03.902Z,99.90
2019-04-21T02:58:44.053Z,99.90
2019-04-21T03:01:17.981Z,99.90
2019-04-21T03:03:41.741Z,99.90
2019-04-21T03:06:16.919Z,99.90
2019-04-21T03:08:49.960Z,99.90
2019-04-21T03:11:12.268Z,99.90
2019-04-21T03:16:23.388Z,99.90
2019-04-21T03:18:56.618Z,99.90
2019-04-21T03:21:26.307Z,99.90
2019-04-21T03:23:54.015Z,99.90
2019-04-21T03:26:28.960Z,99.90
2019-04-21T03:28:56.276Z,99.90
2019-04-21T03:36:56.853Z,99.90
2019-04-21T03:38:53.395Z,99.90
2019-04-21T03:49:11.964Z,99.90
2019-04-21T03:51:56.799Z,99.90
2019-04-21T03:59:09.630Z,99.90
2019-04-21T04:09:44.407Z,99.90
2019-04-21T04:11:58.304Z,99.90
2019-04-21T04:19:41.932Z,99.90
2019-04-21T04:32:07.947Z,99.90
2019-04-21T04:49:54.907Z,99.90
2019-04-21T04:52:32.526Z,99.90
2019-04-21T04:54:58.730Z,99.90
2019-04-21T04:57:47.175Z,99.90
2019-04-21T05:00:03.418Z,99.90
2019-04-21T05:14:59.335Z,99.90
2019-04-21T05:20:08.900Z,99.90
2019-04-21T05:22:28.003Z,99.90
2019-04-21T05:24:53.816Z,99.90
2019-04-21T05:27:39.993Z,99.90
2019-04-21T05:30:22.146Z,99.90
2019-04-21T05:32:52.829Z,99.90
2019-04-21T05:35:41.738Z,99.90
2019-04-21T05:38:10.438Z,99.90
2019-04-21T05:40:35.893Z,99.90
2019-04-21T05:43:06.241Z,99.90
2019-04-21T05:45:47.746Z,99.90
2019-04-21T05:48:24.217Z,99.90
2019-04-21T05:50:44.199Z,99.90
2019-04-21T05:53:26.069Z,99.90
2019-04-21T05:58:21.346Z,99.90
2019-04-21T06:03:41.108Z,99.90
2019-04-21T06:06:08.672Z,99.90
2019-04-21T06:08:39.092Z,99.90
2019-04-21T06:11:10.439Z,99.90
2019-04-21T06:13:46.458Z,99.70
2019-04-21T06:16:07.254Z,99.40
2019-04-21T06:21:11.512Z,98.80
2019-04-21T06:23:42.248Z,98.40
2019-04-21T06:26:43.410Z,98.30
2019-04-21T06:28:45.360Z,97.70
2019-04-21T06:31:30.292Z,97.30
2019-04-21T06:33:48.881Z,96.90
2019-04-21T06:39:19.614Z,96.00
2019-04-21T06:41:39.501Z,95.20
2019-04-21T06:44:18.078Z,94.20
2019-04-21T06:46:39.309Z,93.00
2019-04-21T06:49:08.576Z,90.60
2019-04-21T06:51:44.820Z,88.50
2019-04-21T06:54:14.335Z,86.20
2019-04-21T06:56:54.351Z,85.90
2019-04-21T06:59:13.488Z,84.60
2019-04-21T07:02:21.278Z,82.30
2019-04-21T07:04:22.546Z,81.00
2019-04-21T07:06:57.412Z,78.50
2019-04-21T07:09:25.436Z,77.50
2019-04-21T07:11:58.087Z,76.50
2019-04-21T07:14:38.078Z,75.70
2019-04-21T07:17:06.726Z,77.10
2019-04-21T07:19:34.957Z,74.70
2019-04-21T07:22:09.091Z,75.40
2019-04-21T07:24:32.032Z,72.90
2019-04-21T07:27:02.687Z,73.80
2019-04-21T07:29:45.304Z,74.30
2019-04-21T07:32:22.202Z,75.70
2019-04-21T07:34:38.445Z,74.00
2019-04-21T07:37:06.467Z,73.90
2019-04-21T07:39:36.775Z,71.10
2019-04-21T07:42:04.614Z,72.60
2019-04-21T07:44:35.157Z,70.20
2019-04-21T07:47:11.816Z,67.60
2019-04-21T07:49:56.562Z,67.60
2019-04-21T07:52:39.510Z,67.80
2019-04-21T07:55:18.626Z,67.30
2019-04-21T07:57:35.446Z,65.80
2019-04-21T08:02:43.745Z,63.00
2019-04-21T08:08:08.135Z,61.90
2019-04-21T08:10:15.733Z,62.70
2019-04-21T08:12:43.262Z,63.10
2019-04-21T08:15:23.452Z,61.90
2019-04-21T08:17:51.022Z,61.00
2019-04-21T08:20:19.863Z,61.50
2019-04-21T08:22:51.806Z,60.70
2019-04-21T08:25:21.901Z,60.40
2019-04-21T08:30:32.289Z,59.80
2019-04-21T08:36:03.066Z,58.40
2019-04-21T08:38:00.873Z,57.60
2019-04-21T08:43:01.986Z,58.50
2019-04-21T08:50:41.453Z,55.90
2019-04-21T08:53:07.109Z,55.70
2019-04-21T08:55:51.902Z,57.70
2019-04-21T08:58:25.296Z,56.90
2019-04-21T09:01:09.232Z,57.10
2019-04-21T09:03:57.156Z,55.30
2019-04-21T09:06:40.336Z,55.30
2019-04-21T09:09:14.742Z,55.40
2019-04-21T09:11:28.764Z,55.20
2019-04-21T09:14:05.195Z,55.20
2019-04-21T09:16:31.256Z,55.30
2019-04-21T09:18:56.969Z,54.40
2019-04-21T09:21:38.304Z,54.50
2019-04-21T09:24:05.628Z,54.90
2019-04-21T09:26:34.344Z,55.00
2019-04-21T09:29:01.819Z,54.70
2019-04-21T09:31:26.012Z,54.60
2019-04-21T09:33:57.291Z,54.10
2019-04-21T09:36:25.516Z,54.40
2019-04-21T09:39:02.478Z,55.00
2019-04-21T09:41:27.682Z,54.40
2019-04-21T09:43:57.916Z,54.60
2019-04-21T09:46:27.993Z,52.90
2019-04-21T09:49:02.692Z,52.30
2019-04-21T09:51:28.462Z,52.80
2019-04-21T09:54:05.749Z,53.00
2019-04-21T09:56:39.523Z,53.60
2019-04-21T09:59:10.085Z,54.10
2019-04-21T10:01:45.068Z,52.90
2019-04-21T10:04:05.465Z,52.70
2019-04-21T10:06:34.915Z,51.30
2019-04-21T10:09:10.240Z,52.00
2019-04-21T10:11:39.016Z,52.40
2019-04-21T10:14:09.580Z,52.70
2019-04-21T10:16:55.781Z,53.30
2019-04-21T10:19:25.611Z,53.30
2019-04-21T10:21:56.227Z,52.70
2019-04-21T10:24:26.432Z,51.60
2019-04-21T10:26:56.092Z,52.00
2019-04-21T10:29:29.370Z,52.30
2019-04-21T10:31:57.316Z,52.70
2019-04-21T10:34:27.333Z,52.60
2019-04-21T10:36:56.915Z,52.90
2019-04-21T10:39:27.360Z,54.00
2019-04-21T10:41:57.263Z,53.60
2019-04-21T10:44:27.342Z,54.50
2019-04-21T10:46:56.907Z,54.20
2019-04-21T10:49:26.654Z,53.80
2019-04-21T10:51:57.228Z,52.50
2019-04-21T10:54:37.906Z,53.00
2019-04-21T10:56:58.631Z,53.60
2019-04-21T10:59:29.061Z,52.60
2019-04-21T11:02:00.938Z,53.20
2019-04-21T11:04:36.451Z,52.60
2019-04-21T11:07:10.755Z,53.10
2019-04-21T11:09:38.014Z,53.30
2019-04-21T11:12:08.253Z,53.60
2019-04-21T11:14:38.949Z,52.90
2019-04-21T11:17:10.525Z,52.50
2019-04-21T11:19:41.030Z,52.60
2019-04-21T11:22:10.592Z,52.30
2019-04-21T11:24:40.841Z,51.80
2019-04-21T11:27:10.920Z,51.60
2019-04-21T11:29:41.345Z,52.10
2019-04-21T11:32:11.039Z,52.20
2019-04-21T11:34:41.016Z,51.20
2019-04-21T11:37:12.436Z,50.90
2019-04-21T11:39:50.130Z,49.70
2019-04-21T11:42:15.466Z,50.50
2019-04-21T11:44:45.052Z,48.60
2019-04-21T11:47:25.017Z,47.70
2019-04-21T11:49:54.926Z,47.20
2019-04-21T11:52:25.038Z,47.60
2019-04-21T11:54:55.079Z,48.40
2019-04-21T11:57:28.731Z,48.80
2019-04-21T11:59:55.797Z,48.20
2019-04-21T12:02:25.733Z,48.60
2019-04-21T12:04:55.437Z,48.10
2019-04-21T12:07:25.128Z,48.10
2019-04-21T12:09:55.589Z,46.70
2019-04-21T12:12:25.416Z,46.30
2019-04-21T12:14:54.925Z,45.10
2019-04-21T12:17:25.858Z,46.50
2019-04-21T12:19:56.820Z,47.50
2019-04-21T12:22:29.944Z,46.80
2019-04-21T12:24:58.084Z,46.30
2019-04-21T12:27:29.949Z,45.60
2019-04-21T12:30:01.907Z,47.40
2019-04-21T12:32:40.621Z,46.70
2019-04-21T12:35:12.291Z,45.90
2019-04-21T12:37:42.944Z,45.80
2019-04-21T12:40:12.978Z,46.10
2019-04-21T12:42:43.752Z,46.30
2019-04-21T12:45:17.295Z,46.50
2019-04-21T12:47:49.946Z,46.10
2019-04-21T12:50:18.302Z,46.80
2019-04-21T12:52:47.761Z,45.60
2019-04-21T12:55:17.657Z,45.50
2019-04-21T12:57:47.712Z,44.70
2019-04-21T13:00:20.749Z,44.80
2019-04-21T13:02:51.681Z,45.60
2019-04-21T13:05:21.982Z,45.60
2019-04-21T13:07:51.529Z,45.10
2019-04-21T13:10:22.229Z,45.50
2019-04-21T13:12:52.158Z,44.20
2019-04-21T13:15:21.902Z,44.30
2019-04-21T13:17:52.247Z,43.10
2019-04-21T13:20:23.295Z,43.90
2019-04-21T13:22:52.425Z,43.40
2019-04-21T13:25:21.857Z,42.70
2019-04-21T13:27:52.494Z,43.40
2019-04-21T13:30:22.341Z,44.00
2019-04-21T13:32:53.136Z,44.10
2019-04-21T13:35:23.304Z,41.10
2019-04-21T13:37:54.728Z,42.10
2019-04-21T13:40:45.022Z,41.90
2019-04-21T13:43:04.358Z,42.20
2019-04-21T13:45:34.278Z,42.40
2019-04-21T13:48:04.518Z,43.00
2019-04-21T13:50:35.287Z,43.10
2019-04-21T13:53:06.768Z,41.80
2019-04-21T13:55:38.960Z,43.00
2019-04-21T13:58:12.421Z,42.20
2019-04-21T14:00:43.749Z,41.90
2019-04-21T14:03:14.621Z,41.50
2019-04-21T14:05:46.551Z,42.00
2019-04-21T14:08:16.224Z,40.30
2019-04-21T14:10:47.201Z,40.10
2019-04-21T14:13:16.740Z,40.00
2019-04-21T14:15:48.228Z,39.60
2019-04-21T14:18:18.593Z,40.50
2019-04-21T14:20:49.224Z,40.40
2019-04-21T14:23:28.599Z,41.40
2019-04-21T14:25:51.141Z,41.60
2019-04-21T14:28:21.956Z,41.30
2019-04-21T14:30:52.530Z,40.30
2019-04-21T14:33:23.521Z,40.60
2019-04-21T14:35:54.644Z,39.60
2019-04-21T14:38:24.930Z,38.70
2019-04-21T14:40:54.607Z,39.40
2019-04-21T14:43:24.135Z,40.20
2019-04-21T14:46:04.015Z,40.40
2019-04-21T14:48:52.976Z,40.10
2019-04-21T14:51:41.103Z,39.40
2019-04-21T14:54:12.257Z,39.70
2019-04-21T14:56:43.096Z,39.60
2019-04-21T14:59:12.945Z,40.10
2019-04-21T15:01:44.161Z,39.40
2019-04-21T15:04:16.838Z,38.40
2019-04-21T15:06:45.564Z,37.90
2019-04-21T15:09:15.333Z,39.00
2019-04-21T15:11:44.858Z,39.50
2019-04-21T15:14:15.809Z,39.80
2019-04-21T15:16:46.907Z,39.00
2019-04-21T15:19:16.862Z,39.10
2019-04-21T15:21:46.364Z,37.80
2019-04-21T15:24:18.659Z,38.40
2019-04-21T15:26:51.559Z,38.40
2019-04-21T15:29:20.454Z,38.40
2019-04-21T15:31:50.647Z,38.10
2019-04-21T15:34:22.488Z,38.50
2019-04-21T15:36:50.447Z,38.80
2019-04-21T15:39:19.892Z,38.80
2019-04-21T15:41:50.595Z,39.50
2019-04-21T15:44:20.842Z,38.80
2019-04-21T15:46:50.427Z,38.40
2019-04-21T15:49:20.822Z,38.70
2019-04-21T15:51:51.562Z,38.30
2019-04-21T15:54:28.906Z,38.40
2019-04-21T15:56:58.601Z,38.10
2019-04-21T15:59:30.554Z,38.90
2019-04-21T16:02:18.799Z,40.70
2019-04-21T16:04:54.869Z,42.50
2019-04-21T16:07:24.588Z,43.90
2019-04-21T16:09:55.864Z,44.10
2019-04-21T16:12:25.701Z,44.00
2019-04-21T16:14:56.447Z,44.00
2019-04-21T16:17:27.465Z,41.60
2019-04-21T16:19:57.179Z,40.70
2019-04-21T16:22:26.736Z,40.30
2019-04-21T16:24:56.911Z,42.00
2019-04-21T16:27:27.687Z,42.10
2019-04-21T16:29:57.634Z,41.60
2019-04-21T16:32:28.017Z,43.00
2019-04-21T16:35:03.265Z,43.90
2019-04-21T16:37:29.824Z,43.70
2019-04-21T16:39:59.465Z,43.70
2019-04-21T16:42:30.045Z,43.30
2019-04-21T16:45:00.878Z,43.90
2019-04-21T16:47:30.430Z,43.90
2019-04-21T16:50:01.527Z,44.10
2019-04-21T16:52:34.176Z,44.80
2019-04-21T16:55:08.684Z,44.60
2019-04-21T16:57:43.814Z,45.00
2019-04-21T17:00:26.971Z,45.40
2019-04-21T17:02:46.401Z,45.40
2019-04-21T17:05:16.294Z,44.30
2019-04-21T17:07:47.009Z,44.60
2019-04-21T17:10:17.081Z,45.10
2019-04-21T17:12:47.954Z,45.20
2019-04-21T17:15:32.369Z,45.90
2019-04-21T17:18:07.849Z,45.80
2019-04-21T17:20:35.731Z,46.30
2019-04-21T17:22:51.629Z,45.80
2019-04-21T17:25:24.317Z,45.70
2019-04-21T17:27:53.455Z,45.70
2019-04-21T17:30:24.292Z,46.00
2019-04-21T17:32:55.357Z,46.30
2019-04-21T17:35:24.812Z,46.60
2019-04-21T17:37:54.344Z,48.30
2019-04-21T17:40:26.330Z,49.30
2019-04-21T17:43:02.042Z,49.80
2019-04-21T17:45:27.350Z,49.80
2019-04-21T17:48:03.214Z,49.30
2019-04-21T17:50:29.512Z,51.00
2019-04-21T17:53:10.770Z,49.90
2019-04-21T17:56:06.347Z,50.40
2019-04-21T17:58:36.241Z,50.60
2019-04-21T18:01:20.634Z,51.00
2019-04-21T18:03:53.647Z,51.20
2019-04-21T18:06:10.148Z,51.70
2019-04-21T18:08:54.792Z,52.10
2019-04-21T18:11:10.295Z,52.50
2019-04-21T18:13:32.859Z,53.10
2019-04-21T18:16:18.063Z,53.20
2019-04-21T18:18:34.913Z,54.40
2019-04-21T18:21:24.851Z,53.80
2019-04-21T18:24:05.737Z,54.40
2019-04-21T18:26:37.929Z,54.40
2019-04-21T18:29:03.537Z,55.30
2019-04-21T18:31:40.109Z,55.20
2019-04-21T18:34:11.961Z,55.10
2019-04-21T18:36:49.764Z,55.40
2019-04-21T18:39:42.294Z,55.70
2019-04-21T18:42:18.920Z,56.20
2019-04-21T18:45:04.866Z,56.40
2019-04-21T18:47:28.856Z,56.90
2019-04-21T18:49:48.097Z,57.10
2019-04-21T18:52:32.256Z,57.50
2019-04-21T18:55:05.296Z,57.60
2019-04-21T18:57:30.533Z,57.90
2019-04-21T18:59:53.422Z,57.90
2019-04-21T19:02:24.436Z,58.30
2019-04-21T19:05:00.283Z,58.80
2019-04-21T19:07:45.223Z,58.70
2019-04-21T19:10:21.990Z,59.10
2019-04-21T19:13:16.225Z,59.40
2019-04-21T19:15:15.995Z,59.60
2019-04-21T19:18:16.999Z,59.80
2019-04-21T19:20:26.056Z,61.00
2019-04-21T19:22:46.914Z,60.50
2019-04-21T19:25:20.644Z,61.30
2019-04-21T19:27:50.271Z,62.30
2019-04-21T19:30:36.700Z,62.60
2019-04-21T19:32:58.019Z,63.00
2019-04-21T19:35:27.606Z,63.40
2019-04-21T19:38:03.681Z,63.50
2019-04-21T19:40:47.385Z,64.50
2019-04-21T19:43:07.828Z,64.70
2019-04-21T19:45:44.952Z,65.20
2019-04-21T19:48:20.212Z,64.90
2019-04-21T19:50:51.549Z,65.60
2019-04-21T19:53:25.384Z,66.70
2019-04-21T19:55:40.477Z,66.90
2019-04-21T19:58:09.090Z,67.40
2019-04-21T20:00:40.404Z,68.20
2019-04-21T20:03:12.376Z,69.50
2019-04-21T20:05:49.511Z,70.60
2019-04-21T20:08:27.830Z,71.10
2019-04-21T20:11:04.075Z,72.20
2019-04-21T20:13:51.382Z,72.30
2019-04-21T20:16:06.561Z,72.80
2019-04-21T20:18:27.422Z,73.30
2019-04-21T20:20:52.191Z,74.20
2019-04-21T20:23:27.758Z,75.30
2019-04-21T20:25:58.180Z,75.80
2019-04-21T20:28:37.196Z,76.00
2019-04-21T20:31:14.752Z,76.50
2019-04-21T20:34:00.639Z,77.70
2019-04-21T20:36:23.809Z,78.30
2019-04-21T20:38:40.796Z,79.00
2019-04-21T20:41:16.115Z,79.00
2019-04-21T20:44:08.586Z,79.40
2019-04-21T20:46:38.869Z,80.90
2019-04-21T20:49:10.089Z,81.70
2019-04-21T20:51:42.488Z,82.60
2019-04-21T20:54:17.593Z,82.60
2019-04-21T20:56:42.017Z,83.70
2019-04-21T20:59:12.041Z,82.80
2019-04-21T21:01:44.406Z,84.60
2019-04-21T21:04:13.697Z,84.70
2019-04-21T21:06:45.506Z,85.10
2019-04-21T21:09:18.228Z,85.20
2019-04-21T21:12:09.559Z,86.90
2019-04-21T21:14:30.201Z,86.10
2019-04-21T21:17:03.058Z,87.10
2019-04-21T21:19:37.735Z,86.50
2019-04-21T21:21:56.376Z,88.00
2019-04-21T21:24:38.812Z,88.00
2019-04-21T21:26:58.040Z,87.80
2019-04-21T21:29:39.492Z,90.00
2019-04-21T21:34:53.517Z,90.10
2019-04-21T21:37:26.747Z,89.70
2019-04-21T21:39:51.970Z,89.70
2019-04-21T21:42:05.742Z,90.40
2019-04-21T21:44:35.779Z,90.20
2019-04-21T21:47:22.823Z,90.50
2019-04-21T21:49:54.036Z,90.60
2019-04-21T21:52:22.538Z,90.80
2019-04-21T21:54:41.239Z,91.60
2019-04-21T21:57:10.783Z,91.30
2019-04-21T21:59:41.781Z,91.30
2019-04-21T22:02:16.657Z,91.30
2019-04-21T22:04:59.856Z,91.40
2019-04-21T22:07:22.517Z,92.00
2019-04-21T22:09:50.351Z,92.10
2019-04-21T22:12:20.206Z,92.80
2019-04-21T22:14:55.375Z,92.80
2019-04-21T22:17:41.607Z,93.00
2019-04-21T22:20:13.324Z,92.60
2019-04-21T22:22:41.960Z,92.90
2019-04-21T22:25:06.950Z,93.40
2019-04-21T22:27:35.000Z,93.80
2019-04-21T22:30:12.490Z,94.10
2019-04-21T22:32:50.265Z,94.50
2019-04-21T22:35:22.503Z,94.70
2019-04-21T22:37:54.766Z,94.30
2019-04-21T22:40:25.898Z,94.10
2019-04-21T22:42:56.655Z,94.60
2019-04-21T22:45:23.125Z,94.60
2019-04-21T22:47:49.458Z,94.70
2019-04-21T22:50:32.774Z,94.70
2019-04-21T22:53:07.186Z,95.10
2019-04-21T22:55:35.269Z,94.80
2019-04-21T22:58:09.593Z,95.10
2019-04-21T23:00:47.325Z,95.10
2019-04-21T23:03:17.414Z,95.50
2019-04-21T23:05:45.145Z,95.40
2019-04-21T23:08:15.054Z,95.60
2019-04-21T23:10:49.686Z,95.50
2019-04-21T23:13:23.018Z,95.60
2019-04-21T23:15:53.632Z,95.70
2019-04-21T23:18:39.090Z,95.90
2019-04-21T23:21:08.822Z,95.80
2019-04-21T23:23:42.692Z,95.70
2019-04-21T23:26:07.592Z,96.40
2019-04-21T23:28:45.462Z,96.30
2019-04-21T23:31:11.087Z,96.30
2019-04-21T23:33:27.142Z,96.40
2019-04-21T23:36:05.226Z,97.50
2019-04-21T23:38:34.701Z,97.20
2019-04-21T23:41:03.468Z,96.70
2019-04-21T23:43:33.001Z,97.00
2019-04-21T23:46:09.044Z,96.60
2019-04-21T23:48:51.465Z,96.40
2019-04-21T23:51:16.002Z,96.30
2019-04-21T23:53:37.531Z,96.50
2019-04-21T23:56:07.597Z,96.40
2019-04-21T23:58:39.923Z,96.40
